sensor_id;sensor_type;location;lat;lon;timestamp;pressure;altitude;pressure_sealevel;temperature;humidity
41062;BME280;26812;42.662;23.352;2023-06-10T00:01:28;94519.75;;;19.09;85.81
41062;BME280;26812;42.662;23.352;2023-06-10T00:03:53;94534.28;;;19.27;84.37
41062;BME280;26812;42.662;23.352;2023-06-10T00:06:19;94528.78;;;19.20;85.29
41062;BME280;26812;42.662;23.352;2023-06-10T00:08:46;94528.41;;;19.25;84.75
41062;BME280;26812;42.662;23.352;2023-06-10T00:11:12;94533.91;;;19.29;84.76
41062;BME280;26812;42.662;23.352;2023-06-10T00:13:37;94553.97;;;19.54;83.35
41062;BME280;26812;42.662;23.352;2023-06-10T00:16:03;94544.53;;;19.44;82.91
41062;BME280;26812;42.662;23.352;2023-06-10T00:18:29;94537.72;;;19.13;84.81
41062;BME280;26812;42.662;23.352;2023-06-10T00:20:57;94531.81;;;19.08;84.60
41062;BME280;26812;42.662;23.352;2023-06-10T00:23:28;94524.47;;;19.15;83.96
41062;BME280;26812;42.662;23.352;2023-06-10T00:25:59;94537.75;;;19.20;83.21
41062;BME280;26812;42.662;23.352;2023-06-10T00:28:25;94542.56;;;19.41;80.99
41062;BME280;26812;42.662;23.352;2023-06-10T00:30:50;94544.47;;;19.34;80.96
41062;BME280;26812;42.662;23.352;2023-06-10T00:33:22;94546.28;;;19.12;81.77
41062;BME280;26812;42.662;23.352;2023-06-10T00:35:48;94559.88;;;19.01;82.61
41062;BME280;26812;42.662;23.352;2023-06-10T00:38:13;94558.56;;;18.88;83.35
41062;BME280;26812;42.662;23.352;2023-06-10T00:40:40;94534.81;;;18.48;85.18
41062;BME280;26812;42.662;23.352;2023-06-10T00:43:09;94545.81;;;18.58;86.30
41062;BME280;26812;42.662;23.352;2023-06-10T00:45:34;94546.34;;;18.68;86.42
41062;BME280;26812;42.662;23.352;2023-06-10T00:48:00;94528.47;;;18.77;84.79
41062;BME280;26812;42.662;23.352;2023-06-10T00:50:27;94530.28;;;18.63;84.54
41062;BME280;26812;42.662;23.352;2023-06-10T00:52:54;94509.53;;;18.54;85.17
41062;BME280;26812;42.662;23.352;2023-06-10T00:55:20;94525.34;;;18.75;84.48
41062;BME280;26812;42.662;23.352;2023-06-10T00:57:46;94530.16;;;18.48;84.86
41062;BME280;26812;42.662;23.352;2023-06-10T01:00:14;94537.19;;;18.53;85.28
41062;BME280;26812;42.662;23.352;2023-06-10T01:02:40;94542.69;;;18.56;85.79
41062;BME280;26812;42.662;23.352;2023-06-10T01:05:07;94540.03;;;18.64;85.59
41062;BME280;26812;42.662;23.352;2023-06-10T01:07:51;94538.59;;;18.73;85.45
41062;BME280;26812;42.662;23.352;2023-06-10T01:10:32;94551.78;;;18.68;85.55
41062;BME280;26812;42.662;23.352;2023-06-10T01:13:00;94557.75;;;18.80;84.98
41062;BME280;26812;42.662;23.352;2023-06-10T01:15:29;94539.56;;;18.58;85.02
41062;BME280;26812;42.662;23.352;2023-06-10T01:18:02;94555.84;;;18.88;84.58
41062;BME280;26812;42.662;23.352;2023-06-10T01:20:30;94558.03;;;19.23;81.75
41062;BME280;26812;42.662;23.352;2023-06-10T01:22:58;94549.28;;;18.96;83.08
41062;BME280;26812;42.662;23.352;2023-06-10T01:25:24;94556.25;;;18.90;84.53
41062;BME280;26812;42.662;23.352;2023-06-10T01:31:18;94562.34;;;19.24;82.57
41062;BME280;26812;42.662;23.352;2023-06-10T01:33:50;94547.47;;;19.14;82.59
41062;BME280;26812;42.662;23.352;2023-06-10T01:36:17;94552.47;;;19.02;83.47
41062;BME280;26812;42.662;23.352;2023-06-10T01:38:45;94555.00;;;18.80;84.18
41062;BME280;26812;42.662;23.352;2023-06-10T01:41:16;94549.78;;;19.09;83.59
41062;BME280;26812;42.662;23.352;2023-06-10T01:43:44;94552.56;;;19.19;81.55
41062;BME280;26812;42.662;23.352;2023-06-10T01:46:11;94541.38;;;18.80;83.17
41062;BME280;26812;42.662;23.352;2023-06-10T01:48:37;94554.41;;;19.01;83.03
41062;BME280;26812;42.662;23.352;2023-06-10T01:51:03;94551.94;;;18.89;83.28
41062;BME280;26812;42.662;23.352;2023-06-10T01:53:29;94533.81;;;18.63;84.38
41062;BME280;26812;42.662;23.352;2023-06-10T01:55:54;94534.66;;;18.34;86.68
41062;BME280;26812;42.662;23.352;2023-06-10T01:58:19;94527.38;;;18.45;87.19
41062;BME280;26812;42.662;23.352;2023-06-10T02:00:45;94530.22;;;18.59;85.91
41062;BME280;26812;42.662;23.352;2023-06-10T02:03:10;94527.34;;;18.82;85.07
41062;BME280;26812;42.662;23.352;2023-06-10T02:05:36;94527.88;;;18.98;84.00
41062;BME280;26812;42.662;23.352;2023-06-10T02:08:01;94533.28;;;18.95;83.89
41062;BME280;26812;42.662;23.352;2023-06-10T02:10:26;94515.94;;;18.69;84.83
41062;BME280;26812;42.662;23.352;2023-06-10T02:12:52;94527.38;;;18.85;83.93
41062;BME280;26812;42.662;23.352;2023-06-10T02:15:17;94529.00;;;18.53;85.98
41062;BME280;26812;42.662;23.352;2023-06-10T02:17:43;94522.38;;;18.50;86.78
41062;BME280;26812;42.662;23.352;2023-06-10T02:20:10;94522.22;;;18.77;86.09
41062;BME280;26812;42.662;23.352;2023-06-10T02:22:36;94521.09;;;18.81;85.58
41062;BME280;26812;42.662;23.352;2023-06-10T02:25:02;94500.63;;;18.61;85.46
41062;BME280;26812;42.662;23.352;2023-06-10T02:27:28;94519.84;;;18.72;84.84
41062;BME280;26812;42.662;23.352;2023-06-10T02:29:54;94501.47;;;18.65;85.41
41062;BME280;26812;42.662;23.352;2023-06-10T02:32:19;94496.19;;;18.90;84.34
41062;BME280;26812;42.662;23.352;2023-06-10T02:34:45;94487.28;;;18.97;83.09
41062;BME280;26812;42.662;23.352;2023-06-10T02:37:11;94514.16;;;18.95;83.46
41062;BME280;26812;42.662;23.352;2023-06-10T02:39:36;94509.53;;;18.99;83.42
41062;BME280;26812;42.662;23.352;2023-06-10T02:42:02;94474.31;;;18.79;84.16
41062;BME280;26812;42.662;23.352;2023-06-10T02:44:27;94500.22;;;19.07;83.57
41062;BME280;26812;42.662;23.352;2023-06-10T02:46:52;94500.59;;;19.02;84.59
41062;BME280;26812;42.662;23.352;2023-06-10T02:49:18;94496.22;;;18.93;84.68
41062;BME280;26812;42.662;23.352;2023-06-10T02:51:44;94499.41;;;19.03;84.52
41062;BME280;26812;42.662;23.352;2023-06-10T02:54:09;94503.72;;;19.07;84.95
41062;BME280;26812;42.662;23.352;2023-06-10T02:56:34;94488.16;;;19.11;84.62
41062;BME280;26812;42.662;23.352;2023-06-10T02:59:00;94507.28;;;19.15;84.33
41062;BME280;26812;42.662;23.352;2023-06-10T03:01:25;94483.13;;;19.17;83.98
41062;BME280;26812;42.662;23.352;2023-06-10T03:03:51;94494.38;;;19.08;84.29
41062;BME280;26812;42.662;23.352;2023-06-10T03:06:16;94498.94;;;18.93;84.91
41062;BME280;26812;42.662;23.352;2023-06-10T03:08:42;94487.22;;;18.89;84.89
41062;BME280;26812;42.662;23.352;2023-06-10T03:11:07;94483.75;;;18.96;83.45
41062;BME280;26812;42.662;23.352;2023-06-10T03:13:33;94503.00;;;19.14;83.48
41062;BME280;26812;42.662;23.352;2023-06-10T03:15:58;94488.53;;;19.10;83.73
41062;BME280;26812;42.662;23.352;2023-06-10T03:18:26;94497.66;;;19.35;82.45
41062;BME280;26812;42.662;23.352;2023-06-10T03:20:51;94511.75;;;19.44;81.55
41062;BME280;26812;42.662;23.352;2023-06-10T03:23:17;94513.50;;;19.08;84.26
41062;BME280;26812;42.662;23.352;2023-06-10T03:25:44;94501.28;;;18.91;85.18
41062;BME280;26812;42.662;23.352;2023-06-10T03:28:09;94517.69;;;18.95;85.43
41062;BME280;26812;42.662;23.352;2023-06-10T03:30:35;94525.41;;;19.44;83.41
41062;BME280;26812;42.662;23.352;2023-06-10T03:33:00;94520.31;;;19.43;83.05
41062;BME280;26812;42.662;23.352;2023-06-10T03:35:26;94520.97;;;19.22;84.57
41062;BME280;26812;42.662;23.352;2023-06-10T03:37:51;94529.47;;;19.06;86.35
41062;BME280;26812;42.662;23.352;2023-06-10T03:40:17;94536.59;;;19.25;85.66
41062;BME280;26812;42.662;23.352;2023-06-10T03:42:42;94526.75;;;19.10;85.89
41062;BME280;26812;42.662;23.352;2023-06-10T03:45:09;94530.66;;;19.09;86.62
41062;BME280;26812;42.662;23.352;2023-06-10T03:47:35;94536.66;;;19.32;85.60
41062;BME280;26812;42.662;23.352;2023-06-10T03:50:01;94540.81;;;19.12;86.68
41062;BME280;26812;42.662;23.352;2023-06-10T03:52:28;94535.38;;;19.15;86.93
41062;BME280;26812;42.662;23.352;2023-06-10T03:54:54;94522.94;;;19.25;85.12
41062;BME280;26812;42.662;23.352;2023-06-10T03:57:19;94536.19;;;19.19;85.41
41062;BME280;26812;42.662;23.352;2023-06-10T03:59:44;94534.13;;;19.02;85.60
41062;BME280;26812;42.662;23.352;2023-06-10T04:02:10;94529.16;;;18.67;88.07
41062;BME280;26812;42.662;23.352;2023-06-10T04:04:35;94528.13;;;18.82;88.53
41062;BME280;26812;42.662;23.352;2023-06-10T04:07:03;94533.00;;;19.07;87.14
41062;BME280;26812;42.662;23.352;2023-06-10T04:09:28;94522.09;;;19.10;86.62
41062;BME280;26812;42.662;23.352;2023-06-10T04:11:54;94531.47;;;19.16;85.76
41062;BME280;26812;42.662;23.352;2023-06-10T04:14:19;94522.44;;;19.02;85.99
41062;BME280;26812;42.662;23.352;2023-06-10T04:16:44;94528.53;;;18.84;86.70
41062;BME280;26812;42.662;23.352;2023-06-10T04:19:10;94534.91;;;19.03;86.58
41062;BME280;26812;42.662;23.352;2023-06-10T04:21:35;94530.63;;;19.02;85.85
41062;BME280;26812;42.662;23.352;2023-06-10T04:24:01;94538.88;;;19.16;85.24
41062;BME280;26812;42.662;23.352;2023-06-10T04:26:27;94532.59;;;19.08;84.18
41062;BME280;26812;42.662;23.352;2023-06-10T04:28:53;94515.09;;;19.16;83.71
41062;BME280;26812;42.662;23.352;2023-06-10T04:31:18;94520.84;;;19.01;83.54
41062;BME280;26812;42.662;23.352;2023-06-10T04:33:50;94541.97;;;19.11;83.56
41062;BME280;26812;42.662;23.352;2023-06-10T04:36:15;94526.66;;;18.96;83.64
41062;BME280;26812;42.662;23.352;2023-06-10T04:38:41;94531.81;;;19.08;83.17
41062;BME280;26812;42.662;23.352;2023-06-10T04:41:06;94538.44;;;19.07;82.59
41062;BME280;26812;42.662;23.352;2023-06-10T04:43:32;94542.06;;;19.25;81.48
41062;BME280;26812;42.662;23.352;2023-06-10T04:45:57;94531.50;;;19.20;80.73
41062;BME280;26812;42.662;23.352;2023-06-10T04:48:22;94519.97;;;18.89;82.94
41062;BME280;26812;42.662;23.352;2023-06-10T04:50:49;94544.09;;;18.80;82.98
41062;BME280;26812;42.662;23.352;2023-06-10T04:53:15;94523.41;;;18.79;82.96
41062;BME280;26812;42.662;23.352;2023-06-10T04:55:41;94539.28;;;19.14;81.80
41062;BME280;26812;42.662;23.352;2023-06-10T04:58:07;94541.56;;;19.09;81.62
41062;BME280;26812;42.662;23.352;2023-06-10T05:00:32;94525.75;;;18.77;82.71
41062;BME280;26812;42.662;23.352;2023-06-10T05:02:58;94534.72;;;18.78;83.61
41062;BME280;26812;42.662;23.352;2023-06-10T05:05:23;94537.47;;;18.81;83.94
41062;BME280;26812;42.662;23.352;2023-06-10T05:07:48;94529.84;;;19.01;83.65
41062;BME280;26812;42.662;23.352;2023-06-10T05:10:14;94531.66;;;18.86;82.79
41062;BME280;26812;42.662;23.352;2023-06-10T05:12:40;94547.41;;;19.04;82.76
41062;BME280;26812;42.662;23.352;2023-06-10T05:15:07;94532.97;;;19.03;82.08
41062;BME280;26812;42.662;23.352;2023-06-10T05:17:32;94527.56;;;19.14;82.49
41062;BME280;26812;42.662;23.352;2023-06-10T05:19:58;94538.25;;;19.37;81.73
41062;BME280;26812;42.662;23.352;2023-06-10T05:22:23;94497.91;;;19.12;81.64
41062;BME280;26812;42.662;23.352;2023-06-10T05:24:52;94536.31;;;19.37;81.41
41062;BME280;26812;42.662;23.352;2023-06-10T05:27:18;94536.97;;;19.23;81.81
41062;BME280;26812;42.662;23.352;2023-06-10T05:29:44;94535.16;;;18.83;83.27
41062;BME280;26812;42.662;23.352;2023-06-10T05:32:10;94526.41;;;18.64;85.96
41062;BME280;26812;42.662;23.352;2023-06-10T05:34:36;94542.41;;;19.16;84.37
41062;BME280;26812;42.662;23.352;2023-06-10T05:37:01;94515.34;;;18.97;83.03
41062;BME280;26812;42.662;23.352;2023-06-10T05:39:26;94539.81;;;18.83;85.53
41062;BME280;26812;42.662;23.352;2023-06-10T05:41:59;94523.97;;;18.99;84.25
41062;BME280;26812;42.662;23.352;2023-06-10T05:44:26;94543.94;;;19.10;85.85
41062;BME280;26812;42.662;23.352;2023-06-10T05:46:51;94537.38;;;19.26;85.22
41062;BME280;26812;42.662;23.352;2023-06-10T05:49:17;94541.03;;;19.47;84.94
41062;BME280;26812;42.662;23.352;2023-06-10T05:51:42;94517.19;;;19.37;84.75
41062;BME280;26812;42.662;23.352;2023-06-10T05:54:08;94538.06;;;19.67;84.18
41062;BME280;26812;42.662;23.352;2023-06-10T05:56:33;94547.81;;;19.71;84.18
41062;BME280;26812;42.662;23.352;2023-06-10T05:58:58;94542.47;;;19.93;83.83
41062;BME280;26812;42.662;23.352;2023-06-10T06:01:24;94550.72;;;20.17;81.90
41062;BME280;26812;42.662;23.352;2023-06-10T06:03:49;94559.69;;;20.14;80.97
41062;BME280;26812;42.662;23.352;2023-06-10T06:06:15;94556.00;;;19.68;83.65
41062;BME280;26812;42.662;23.352;2023-06-10T06:08:40;94545.88;;;19.75;84.99
41062;BME280;26812;42.662;23.352;2023-06-10T06:11:05;94523.28;;;19.89;82.32
41062;BME280;26812;42.662;23.352;2023-06-10T06:13:31;94543.25;;;19.97;83.18
41062;BME280;26812;42.662;23.352;2023-06-10T06:15:56;94507.63;;;19.79;82.85
41062;BME280;26812;42.662;23.352;2023-06-10T06:18:21;94545.22;;;20.10;82.71
41062;BME280;26812;42.662;23.352;2023-06-10T06:20:47;94553.50;;;20.28;82.56
41062;BME280;26812;42.662;23.352;2023-06-10T06:23:12;94548.81;;;20.36;79.94
41062;BME280;26812;42.662;23.352;2023-06-10T06:25:38;94541.41;;;20.33;81.03
41062;BME280;26812;42.662;23.352;2023-06-10T06:28:07;94529.66;;;20.29;80.87
41062;BME280;26812;42.662;23.352;2023-06-10T06:30:34;94554.34;;;20.50;80.13
41062;BME280;26812;42.662;23.352;2023-06-10T06:33:00;94527.75;;;20.43;79.03
41062;BME280;26812;42.662;23.352;2023-06-10T06:35:25;94547.72;;;20.55;79.52
41062;BME280;26812;42.662;23.352;2023-06-10T06:37:51;94551.63;;;20.61;79.34
41062;BME280;26812;42.662;23.352;2023-06-10T06:40:16;94549.69;;;20.68;80.18
41062;BME280;26812;42.662;23.352;2023-06-10T06:42:41;94549.31;;;20.84;79.56
41062;BME280;26812;42.662;23.352;2023-06-10T06:45:07;94529.34;;;20.80;76.18
41062;BME280;26812;42.662;23.352;2023-06-10T06:47:32;94552.44;;;21.04;74.06
41062;BME280;26812;42.662;23.352;2023-06-10T06:49:58;94543.41;;;21.11;74.08
41062;BME280;26812;42.662;23.352;2023-06-10T06:52:23;94523.88;;;20.76;75.59
41062;BME280;26812;42.662;23.352;2023-06-10T06:54:48;94542.25;;;21.12;73.40
41062;BME280;26812;42.662;23.352;2023-06-10T06:57:14;94547.34;;;21.02;74.74
41062;BME280;26812;42.662;23.352;2023-06-10T06:59:40;94530.91;;;21.09;73.02
41062;BME280;26812;42.662;23.352;2023-06-10T07:02:05;94541.47;;;20.97;75.07
41062;BME280;26812;42.662;23.352;2023-06-10T07:04:31;94539.91;;;21.10;75.10
41062;BME280;26812;42.662;23.352;2023-06-10T07:06:56;94535.59;;;21.30;74.10
41062;BME280;26812;42.662;23.352;2023-06-10T07:09:22;94537.56;;;21.33;72.29
41062;BME280;26812;42.662;23.352;2023-06-10T07:11:47;94507.81;;;21.46;70.53
41062;BME280;26812;42.662;23.352;2023-06-10T07:14:13;94537.09;;;21.63;71.37
41062;BME280;26812;42.662;23.352;2023-06-10T07:16:38;94530.00;;;21.73;69.99
41062;BME280;26812;42.662;23.352;2023-06-10T07:19:03;94537.34;;;22.01;67.86
41062;BME280;26812;42.662;23.352;2023-06-10T07:21:30;94512.41;;;21.70;69.47
41062;BME280;26812;42.662;23.352;2023-06-10T07:23:55;94529.94;;;21.94;69.62
41062;BME280;26812;42.662;23.352;2023-06-10T07:26:22;94525.56;;;22.15;69.30
41062;BME280;26812;42.662;23.352;2023-06-10T07:28:47;94529.41;;;22.28;67.93
41062;BME280;26812;42.662;23.352;2023-06-10T07:31:13;94522.03;;;22.18;67.66
41062;BME280;26812;42.662;23.352;2023-06-10T07:33:38;94524.78;;;22.18;68.52
41062;BME280;26812;42.662;23.352;2023-06-10T07:36:06;94527.38;;;22.43;65.26
41062;BME280;26812;42.662;23.352;2023-06-10T07:38:32;94530.25;;;22.21;66.99
41062;BME280;26812;42.662;23.352;2023-06-10T07:40:57;94527.91;;;22.20;68.06
41062;BME280;26812;42.662;23.352;2023-06-10T07:43:23;94525.44;;;22.40;68.38
41062;BME280;26812;42.662;23.352;2023-06-10T07:45:49;94525.44;;;22.95;64.39
41062;BME280;26812;42.662;23.352;2023-06-10T07:48:14;94537.34;;;22.81;66.46
41062;BME280;26812;42.662;23.352;2023-06-10T07:50:40;94523.84;;;23.01;63.85
41062;BME280;26812;42.662;23.352;2023-06-10T07:53:05;94525.56;;;23.26;62.01
41062;BME280;26812;42.662;23.352;2023-06-10T07:55:31;94516.81;;;22.97;63.78
41062;BME280;26812;42.662;23.352;2023-06-10T07:57:56;94488.97;;;22.95;60.38
41062;BME280;26812;42.662;23.352;2023-06-10T08:00:21;94521.00;;;23.12;60.68
41062;BME280;26812;42.662;23.352;2023-06-10T08:02:47;94523.84;;;23.01;60.79
41062;BME280;26812;42.662;23.352;2023-06-10T08:05:12;94528.53;;;23.04;60.68
41062;BME280;26812;42.662;23.352;2023-06-10T08:07:47;94531.31;;;23.42;59.23
41062;BME280;26812;42.662;23.352;2023-06-10T08:10:12;94532.91;;;23.39;58.44
41062;BME280;26812;42.662;23.352;2023-06-10T08:12:38;94529.50;;;23.24;58.20
41062;BME280;26812;42.662;23.352;2023-06-10T08:15:03;94521.25;;;23.69;57.82
41062;BME280;26812;42.662;23.352;2023-06-10T08:17:32;94510.31;;;23.62;57.79
41062;BME280;26812;42.662;23.352;2023-06-10T08:19:57;94522.28;;;23.41;57.42
41062;BME280;26812;42.662;23.352;2023-06-10T08:22:23;94505.72;;;23.48;57.34
41062;BME280;26812;42.662;23.352;2023-06-10T08:24:48;94511.56;;;23.92;56.53
41062;BME280;26812;42.662;23.352;2023-06-10T08:27:14;94511.09;;;23.63;51.76
41062;BME280;26812;42.662;23.352;2023-06-10T08:29:39;94500.81;;;23.70;52.02
41062;BME280;26812;42.662;23.352;2023-06-10T08:32:05;94500.97;;;23.90;54.98
41062;BME280;26812;42.662;23.352;2023-06-10T08:34:38;94497.31;;;24.31;53.84
41062;BME280;26812;42.662;23.352;2023-06-10T08:37:04;94509.06;;;24.62;50.96
41062;BME280;26812;42.662;23.352;2023-06-10T08:39:29;94484.53;;;24.44;52.55
41062;BME280;26812;42.662;23.352;2023-06-10T08:44:28;94468.16;;;24.60;49.37
41062;BME280;26812;42.662;23.352;2023-06-10T08:46:56;94495.75;;;25.07;45.75
41062;BME280;26812;42.662;23.352;2023-06-10T08:49:26;94489.81;;;24.85;44.51
41062;BME280;26812;42.662;23.352;2023-06-10T08:51:55;94500.25;;;25.21;44.12
41062;BME280;26812;42.662;23.352;2023-06-10T08:54:25;94493.41;;;25.29;44.28
41062;BME280;26812;42.662;23.352;2023-06-10T08:56:54;94488.31;;;25.27;42.95
41062;BME280;26812;42.662;23.352;2023-06-10T08:59:21;94482.75;;;25.31;41.73
41062;BME280;26812;42.662;23.352;2023-06-10T09:01:47;94462.84;;;24.96;42.14
41062;BME280;26812;42.662;23.352;2023-06-10T09:04:13;94462.47;;;24.17;43.72
41062;BME280;26812;42.662;23.352;2023-06-10T09:06:40;94482.28;;;24.35;45.49
41062;BME280;26812;42.662;23.352;2023-06-10T09:09:06;94475.53;;;24.67;43.68
41062;BME280;26812;42.662;23.352;2023-06-10T09:11:38;94463.28;;;24.44;43.65
41062;BME280;26812;42.662;23.352;2023-06-10T09:14:03;94462.06;;;24.49;44.62
41062;BME280;26812;42.662;23.352;2023-06-10T09:16:29;94466.00;;;24.71;44.00
41062;BME280;26812;42.662;23.352;2023-06-10T09:18:54;94461.41;;;24.88;44.49
41062;BME280;26812;42.662;23.352;2023-06-10T09:21:24;94467.03;;;25.28;44.68
41062;BME280;26812;42.662;23.352;2023-06-10T09:23:50;94469.09;;;25.67;43.81
41062;BME280;26812;42.662;23.352;2023-06-10T09:26:16;94461.81;;;25.77;42.08
41062;BME280;26812;42.662;23.352;2023-06-10T09:28:47;94469.91;;;24.74;42.52
41062;BME280;26812;42.662;23.352;2023-06-10T09:31:13;94439.09;;;24.83;42.67
41062;BME280;26812;42.662;23.352;2023-06-10T09:33:39;94470.94;;;25.07;42.91
41062;BME280;26812;42.662;23.352;2023-06-10T09:36:05;94471.78;;;25.27;42.76
41062;BME280;26812;42.662;23.352;2023-06-10T09:38:32;94464.34;;;25.87;41.74
41062;BME280;26812;42.662;23.352;2023-06-10T09:40:58;94458.06;;;25.87;43.69
41062;BME280;26812;42.662;23.352;2023-06-10T09:46:05;94442.09;;;26.14;41.04
41062;BME280;26812;42.662;23.352;2023-06-10T09:48:34;94448.97;;;25.47;42.36
41062;BME280;26812;42.662;23.352;2023-06-10T09:51:00;94441.97;;;25.42;41.90
41062;BME280;26812;42.662;23.352;2023-06-10T09:53:26;94441.47;;;25.47;41.87
41062;BME280;26812;42.662;23.352;2023-06-10T09:55:52;94449.66;;;25.31;42.95
41062;BME280;26812;42.662;23.352;2023-06-10T09:58:17;94440.00;;;25.62;42.50
41062;BME280;26812;42.662;23.352;2023-06-10T10:00:42;94432.03;;;25.68;43.05
41062;BME280;26812;42.662;23.352;2023-06-10T10:03:08;94425.94;;;25.77;43.17
41062;BME280;26812;42.662;23.352;2023-06-10T10:05:33;94441.50;;;25.87;41.74
41062;BME280;26812;42.662;23.352;2023-06-10T10:07:59;94423.94;;;25.97;42.99
41062;BME280;26812;42.662;23.352;2023-06-10T10:10:24;94428.38;;;26.11;41.82
41062;BME280;26812;42.662;23.352;2023-06-10T10:12:55;94424.25;;;26.19;40.45
41062;BME280;26812;42.662;23.352;2023-06-10T10:15:25;94414.72;;;26.56;38.80
41062;BME280;26812;42.662;23.352;2023-06-10T10:18:07;94415.00;;;26.45;38.77
41062;BME280;26812;42.662;23.352;2023-06-10T10:20:38;94395.50;;;26.33;38.66
41062;BME280;26812;42.662;23.352;2023-06-10T10:23:08;94417.50;;;26.72;37.92
41062;BME280;26812;42.662;23.352;2023-06-10T10:25:41;94399.44;;;26.84;40.23
41062;BME280;26812;42.662;23.352;2023-06-10T10:28:09;94423.06;;;27.34;40.62
41062;BME280;26812;42.662;23.352;2023-06-10T10:30:57;94419.59;;;27.59;38.82
41062;BME280;26812;42.662;23.352;2023-06-10T10:34:00;94410.03;;;27.47;39.92
41062;BME280;26812;42.662;23.352;2023-06-10T10:36:27;94406.59;;;27.72;37.77
41062;BME280;26812;42.662;23.352;2023-06-10T10:38:54;94406.06;;;27.77;38.25
41062;BME280;26812;42.662;23.352;2023-06-10T10:41:24;94403.88;;;27.56;38.32
41062;BME280;26812;42.662;23.352;2023-06-10T10:43:52;94394.31;;;27.73;38.27
41062;BME280;26812;42.662;23.352;2023-06-10T10:46:18;94382.22;;;26.92;36.83
41062;BME280;26812;42.662;23.352;2023-06-10T10:48:44;94380.03;;;26.71;38.45
41062;BME280;26812;42.662;23.352;2023-06-10T10:51:10;94395.09;;;27.15;40.09
41062;BME280;26812;42.662;23.352;2023-06-10T10:53:39;94376.56;;;27.00;40.22
41062;BME280;26812;42.662;23.352;2023-06-10T10:56:13;94385.34;;;26.95;39.83
41062;BME280;26812;42.662;23.352;2023-06-10T10:58:39;94388.66;;;27.35;40.28
41062;BME280;26812;42.662;23.352;2023-06-10T11:01:11;94388.13;;;27.52;38.65
41062;BME280;26812;42.662;23.352;2023-06-10T11:03:43;94356.03;;;26.52;38.95
41062;BME280;26812;42.662;23.352;2023-06-10T11:06:18;94374.72;;;26.93;39.85
41062;BME280;26812;42.662;23.352;2023-06-10T11:11:25;94380.28;;;27.22;40.86
41062;BME280;26812;42.662;23.352;2023-06-10T11:16:27;94370.16;;;27.32;38.85
41062;BME280;26812;42.662;23.352;2023-06-10T11:18:56;94358.31;;;26.86;38.57
41062;BME280;26812;42.662;23.352;2023-06-10T11:21:25;94350.91;;;27.28;39.18
41062;BME280;26812;42.662;23.352;2023-06-10T11:23:51;94365.66;;;27.79;39.72
41062;BME280;26812;42.662;23.352;2023-06-10T11:33:57;94336.66;;;27.71;37.90
41062;BME280;26812;42.662;23.352;2023-06-10T11:36:23;94339.84;;;27.82;37.61
41062;BME280;26812;42.662;23.352;2023-06-10T11:38:50;94339.78;;;27.86;38.59
41062;BME280;26812;42.662;23.352;2023-06-10T11:41:18;94336.66;;;27.84;37.47
41062;BME280;26812;42.662;23.352;2023-06-10T11:43:44;94343.19;;;27.07;37.18
41062;BME280;26812;42.662;23.352;2023-06-10T11:46:10;94326.00;;;26.38;39.32
41062;BME280;26812;42.662;23.352;2023-06-10T11:48:36;94335.72;;;26.75;38.60
41062;BME280;26812;42.662;23.352;2023-06-10T11:51:08;94320.16;;;26.36;38.79
41062;BME280;26812;42.662;23.352;2023-06-10T11:53:34;94345.66;;;26.56;39.52
41062;BME280;26812;42.662;23.352;2023-06-10T11:56:00;94328.78;;;26.83;40.76
41062;BME280;26812;42.662;23.352;2023-06-10T11:58:25;94324.47;;;27.27;40.88
41062;BME280;26812;42.662;23.352;2023-06-10T12:00:52;94328.44;;;27.68;40.40
41062;BME280;26812;42.662;23.352;2023-06-10T12:03:19;94338.84;;;27.76;38.67
41062;BME280;26812;42.662;23.352;2023-06-10T12:05:57;94347.75;;;27.55;40.39
41062;BME280;26812;42.662;23.352;2023-06-10T12:08:23;94328.88;;;27.66;37.79
41062;BME280;26812;42.662;23.352;2023-06-10T12:10:49;94334.66;;;27.72;36.99
41062;BME280;26812;42.662;23.352;2023-06-10T12:13:15;94335.00;;;27.32;36.91
41062;BME280;26812;42.662;23.352;2023-06-10T12:15:40;94322.84;;;26.84;36.50
41062;BME280;26812;42.662;23.352;2023-06-10T12:18:05;94323.31;;;26.67;38.82
41062;BME280;26812;42.662;23.352;2023-06-10T12:20:32;94322.50;;;26.82;40.50
41062;BME280;26812;42.662;23.352;2023-06-10T12:23:00;94330.44;;;26.80;41.21
41062;BME280;26812;42.662;23.352;2023-06-10T12:25:27;94280.13;;;26.73;40.91
41062;BME280;26812;42.662;23.352;2023-06-10T12:27:55;94315.44;;;27.10;39.39
41062;BME280;26812;42.662;23.352;2023-06-10T12:30:25;94316.03;;;27.18;37.63
41062;BME280;26812;42.662;23.352;2023-06-10T12:32:54;94324.38;;;27.31;36.10
41062;BME280;26812;42.662;23.352;2023-06-10T12:35:22;94307.09;;;26.98;36.00
41062;BME280;26812;42.662;23.352;2023-06-10T12:38:02;94311.47;;;27.11;36.79
41062;BME280;26812;42.662;23.352;2023-06-10T12:40:39;94282.56;;;26.71;36.91
41062;BME280;26812;42.662;23.352;2023-06-10T12:43:09;94301.38;;;27.05;37.20
41062;BME280;26812;42.662;23.352;2023-06-10T12:45:35;94304.94;;;26.44;35.69
41062;BME280;26812;42.662;23.352;2023-06-10T12:48:11;94295.25;;;26.68;35.74
41062;BME280;26812;42.662;23.352;2023-06-10T12:50:39;94288.53;;;26.53;35.38
41062;BME280;26812;42.662;23.352;2023-06-10T12:53:05;94299.25;;;26.51;34.59
41062;BME280;26812;42.662;23.352;2023-06-10T12:55:31;94290.56;;;26.36;34.60
41062;BME280;26812;42.662;23.352;2023-06-10T12:57:58;94297.94;;;26.23;34.80
41062;BME280;26812;42.662;23.352;2023-06-10T13:00:23;94309.94;;;26.49;34.85
41062;BME280;26812;42.662;23.352;2023-06-10T13:02:55;94305.25;;;26.62;35.14
41062;BME280;26812;42.662;23.352;2023-06-10T13:05:20;94289.53;;;26.75;35.48
41062;BME280;26812;42.662;23.352;2023-06-10T13:07:46;94301.06;;;26.86;35.38
41062;BME280;26812;42.662;23.352;2023-06-10T13:10:16;94295.75;;;27.08;34.53